sensor_id;sensor_type;location;lat;lon;timestamp;temperature;humidity
5675;DHT22;2860;54.284;10.158;2023-04-26T00:01:12;2.90;99.90
5675;DHT22;2860;54.284;10.158;2023-04-26T00:03:39;2.90;99.90
5675;DHT22;2860;54.284;10.158;2023-04-26T00:06:05;2.80;99.90
5675;DHT22;2860;54.284;10.158;2023-04-26T00:08:33;2.80;99.90
5675;DHT22;2860;54.284;10.158;2023-04-26T00:10:59;2.80;99.90
5675;DHT22;2860;54.284;10.158;2023-04-26T00:13:24;2.80;99.90
5675;DHT22;2860;54.284;10.158;2023-04-26T00:15:50;2.70;99.90
5675;DHT22;2860;54.284;10.158;2023-04-26T00:18:15;2.60;99.90
5675;DHT22;2860;54.284;10.158;2023-04-26T00:20:42;2.60;99.90
5675;DHT22;2860;54.284;10.158;2023-04-26T00:23:07;2.50;99.90
5675;DHT22;2860;54.284;10.158;2023-04-26T00:25:35;2.50;99.90
5675;DHT22;2860;54.284;10.158;2023-04-26T00:28:01;2.50;99.90
5675;DHT22;2860;54.284;10.158;2023-04-26T00:30:27;2.50;99.90
5675;DHT22;2860;54.284;10.158;2023-04-26T00:32:52;2.50;99.90
5675;DHT22;2860;54.284;10.158;2023-04-26T00:35:18;2.50;99.90
5675;DHT22;2860;54.284;10.158;2023-04-26T00:37:44;2.50;99.90
5675;DHT22;2860;54.284;10.158;2023-04-26T00:40:10;2.50;99.90
5675;DHT22;2860;54.284;10.158;2023-04-26T00:42:37;2.50;99.90
5675;DHT22;2860;54.284;10.158;2023-04-26T00:45:04;2.50;99.90
5675;DHT22;2860;54.284;10.158;2023-04-26T00:47:30;2.50;99.90
5675;DHT22;2860;54.284;10.158;2023-04-26T00:49:56;2.50;99.90
5675;DHT22;2860;54.284;10.158;2023-04-26T00:52:23;2.50;99.90
5675;DHT22;2860;54.284;10.158;2023-04-26T00:54:49;2.40;99.90
5675;DHT22;2860;54.284;10.158;2023-04-26T00:57:15;2.40;99.90
5675;DHT22;2860;54.284;10.158;2023-04-26T00:59:41;2.40;99.90
5675;DHT22;2860;54.284;10.158;2023-04-26T01:02:06;2.40;99.90
5675;DHT22;2860;54.284;10.158;2023-04-26T01:04:32;2.40;99.90
5675;DHT22;2860;54.284;10.158;2023-04-26T01:06:59;2.40;99.90
5675;DHT22;2860;54.284;10.158;2023-04-26T01:09:26;2.30;99.90
5675;DHT22;2860;54.284;10.158;2023-04-26T01:11:52;2.30;99.90
5675;DHT22;2860;54.284;10.158;2023-04-26T01:14:21;2.30;99.90
5675;DHT22;2860;54.284;10.158;2023-04-26T01:16:47;2.20;99.90
5675;DHT22;2860;54.284;10.158;2023-04-26T01:19:14;2.10;99.90
5675;DHT22;2860;54.284;10.158;2023-04-26T01:21:41;2.10;99.90
5675;DHT22;2860;54.284;10.158;2023-04-26T01:24:09;2.10;99.90
5675;DHT22;2860;54.284;10.158;2023-04-26T01:26:35;2.00;99.90
5675;DHT22;2860;54.284;10.158;2023-04-26T01:29:14;2.00;99.90
5675;DHT22;2860;54.284;10.158;2023-04-26T01:31:40;2.00;99.90
5675;DHT22;2860;54.284;10.158;2023-04-26T01:34:06;2.00;99.90
5675;DHT22;2860;54.284;10.158;2023-04-26T01:36:31;2.00;99.90
5675;DHT22;2860;54.284;10.158;2023-04-26T01:38:57;2.00;99.90
5675;DHT22;2860;54.284;10.158;2023-04-26T01:41:22;2.10;99.90
5675;DHT22;2860;54.284;10.158;2023-04-26T01:43:48;2.20;99.90
5675;DHT22;2860;54.284;10.158;2023-04-26T01:46:14;2.20;99.90
5675;DHT22;2860;54.284;10.158;2023-04-26T01:48:39;2.20;99.90
5675;DHT22;2860;54.284;10.158;2023-04-26T01:51:05;2.20;99.90
5675;DHT22;2860;54.284;10.158;2023-04-26T01:53:30;2.20;99.90
5675;DHT22;2860;54.284;10.158;2023-04-26T01:56:00;2.20;99.90
5675;DHT22;2860;54.284;10.158;2023-04-26T01:58:27;2.20;99.90
5675;DHT22;2860;54.284;10.158;2023-04-26T02:00:52;2.20;99.90
5675;DHT22;2860;54.284;10.158;2023-04-26T02:03:18;2.20;99.90
5675;DHT22;2860;54.284;10.158;2023-04-26T02:05:43;2.30;99.90
5675;DHT22;2860;54.284;10.158;2023-04-26T02:08:09;2.30;99.90
5675;DHT22;2860;54.284;10.158;2023-04-26T02:10:34;2.20;99.90
5675;DHT22;2860;54.284;10.158;2023-04-26T02:13:00;2.20;99.90
5675;DHT22;2860;54.284;10.158;2023-04-26T02:15:25;2.20;99.90
5675;DHT22;2860;54.284;10.158;2023-04-26T02:17:51;2.10;99.90
5675;DHT22;2860;54.284;10.158;2023-04-26T02:20:18;2.00;99.90
5675;DHT22;2860;54.284;10.158;2023-04-26T02:22:44;2.00;99.90
5675;DHT22;2860;54.284;10.158;2023-04-26T02:25:09;2.00;99.90
5675;DHT22;2860;54.284;10.158;2023-04-26T02:27:36;2.00;99.90
5675;DHT22;2860;54.284;10.158;2023-04-26T02:30:02;2.00;99.90
5675;DHT22;2860;54.284;10.158;2023-04-26T02:32:28;2.00;99.90
5675;DHT22;2860;54.284;10.158;2023-04-26T02:34:53;1.90;99.90
5675;DHT22;2860;54.284;10.158;2023-04-26T02:37:19;1.90;99.90
5675;DHT22;2860;54.284;10.158;2023-04-26T02:39:49;1.90;99.90
5675;DHT22;2860;54.284;10.158;2023-04-26T02:42:15;2.00;99.90
5675;DHT22;2860;54.284;10.158;2023-04-26T02:44:40;2.00;99.90
5675;DHT22;2860;54.284;10.158;2023-04-26T02:47:07;2.00;99.90
5675;DHT22;2860;54.284;10.158;2023-04-26T02:49:33;2.00;99.90
5675;DHT22;2860;54.284;10.158;2023-04-26T02:51:58;2.10;99.90
5675;DHT22;2860;54.284;10.158;2023-04-26T02:54:24;2.10;99.90
5675;DHT22;2860;54.284;10.158;2023-04-26T02:56:50;2.10;99.90
5675;DHT22;2860;54.284;10.158;2023-04-26T02:59:15;2.00;99.90
5675;DHT22;2860;54.284;10.158;2023-04-26T03:01:41;2.00;99.90
5675;DHT22;2860;54.284;10.158;2023-04-26T03:04:07;2.00;99.90
5675;DHT22;2860;54.284;10.158;2023-04-26T03:06:33;1.90;99.90
5675;DHT22;2860;54.284;10.158;2023-04-26T03:08:58;1.90;99.90
5675;DHT22;2860;54.284;10.158;2023-04-26T03:11:24;1.90;99.90
5675;DHT22;2860;54.284;10.158;2023-04-26T03:13:49;1.90;99.90
5675;DHT22;2860;54.284;10.158;2023-04-26T03:16:14;1.90;99.90
5675;DHT22;2860;54.284;10.158;2023-04-26T03:18:40;1.90;99.90
5675;DHT22;2860;54.284;10.158;2023-04-26T03:21:06;1.80;99.90
5675;DHT22;2860;54.284;10.158;2023-04-26T03:23:31;1.80;99.90
5675;DHT22;2860;54.284;10.158;2023-04-26T03:25:57;1.80;99.90
5675;DHT22;2860;54.284;10.158;2023-04-26T03:28:23;1.70;99.90
5675;DHT22;2860;54.284;10.158;2023-04-26T03:30:48;1.70;99.90
5675;DHT22;2860;54.284;10.158;2023-04-26T03:33:14;1.70;99.90
5675;DHT22;2860;54.284;10.158;2023-04-26T03:35:41;1.60;99.90
5675;DHT22;2860;54.284;10.158;2023-04-26T03:38:07;1.60;99.90
5675;DHT22;2860;54.284;10.158;2023-04-26T03:40:33;1.60;99.90
5675;DHT22;2860;54.284;10.158;2023-04-26T03:42:58;1.60;99.90
5675;DHT22;2860;54.284;10.158;2023-04-26T03:45:24;1.60;99.90
5675;DHT22;2860;54.284;10.158;2023-04-26T03:47:51;1.50;99.90
5675;DHT22;2860;54.284;10.158;2023-04-26T03:50:16;1.60;99.90
5675;DHT22;2860;54.284;10.158;2023-04-26T03:52:42;1.50;99.90
5675;DHT22;2860;54.284;10.158;2023-04-26T03:55:09;1.50;99.90
5675;DHT22;2860;54.284;10.158;2023-04-26T03:57:36;1.50;99.90
5675;DHT22;2860;54.284;10.158;2023-04-26T04:00:03;1.50;99.90
5675;DHT22;2860;54.284;10.158;2023-04-26T04:02:36;1.50;99.90
5675;DHT22;2860;54.284;10.158;2023-04-26T04:05:01;1.50;99.90
5675;DHT22;2860;54.284;10.158;2023-04-26T04:07:27;1.60;99.90
5675;DHT22;2860;54.284;10.158;2023-04-26T04:09:52;1.70;99.90
5675;DHT22;2860;54.284;10.158;2023-04-26T04:12:18;1.80;99.90
5675;DHT22;2860;54.284;10.158;2023-04-26T04:14:43;1.90;99.90
5675;DHT22;2860;54.284;10.158;2023-04-26T04:17:09;1.90;99.90
5675;DHT22;2860;54.284;10.158;2023-04-26T04:19:35;2.00;99.90
5675;DHT22;2860;54.284;10.158;2023-04-26T04:22:01;2.00;99.90
5675;DHT22;2860;54.284;10.158;2023-04-26T04:24:26;2.00;99.90
5675;DHT22;2860;54.284;10.158;2023-04-26T04:26:52;2.10;99.90
5675;DHT22;2860;54.284;10.158;2023-04-26T04:29:17;2.20;99.90
5675;DHT22;2860;54.284;10.158;2023-04-26T04:31:43;2.20;99.90
5675;DHT22;2860;54.284;10.158;2023-04-26T04:34:09;2.30;99.90
5675;DHT22;2860;54.284;10.158;2023-04-26T04:36:34;2.30;99.90
5675;DHT22;2860;54.284;10.158;2023-04-26T04:39:00;2.40;99.90
5675;DHT22;2860;54.284;10.158;2023-04-26T04:41:25;2.40;99.90
5675;DHT22;2860;54.284;10.158;2023-04-26T04:43:52;2.40;99.90
5675;DHT22;2860;54.284;10.158;2023-04-26T04:46:18;2.40;99.90
5675;DHT22;2860;54.284;10.158;2023-04-26T04:48:43;2.50;99.90
5675;DHT22;2860;54.284;10.158;2023-04-26T04:51:09;2.50;99.90
5675;DHT22;2860;54.284;10.158;2023-04-26T04:53:34;2.50;99.90
5675;DHT22;2860;54.284;10.158;2023-04-26T04:56:00;2.50;99.90
5675;DHT22;2860;54.284;10.158;2023-04-26T04:58:25;2.50;99.90
5675;DHT22;2860;54.284;10.158;2023-04-26T05:00:51;2.50;99.90
5675;DHT22;2860;54.284;10.158;2023-04-26T05:03:19;2.60;99.90
5675;DHT22;2860;54.284;10.158;2023-04-26T05:05:44;2.60;99.90
5675;DHT22;2860;54.284;10.158;2023-04-26T05:08:10;2.70;99.90
5675;DHT22;2860;54.284;10.158;2023-04-26T05:10:35;2.70;99.90
5675;DHT22;2860;54.284;10.158;2023-04-26T05:13:01;2.70;99.90
5675;DHT22;2860;54.284;10.158;2023-04-26T05:15:27;3.10;99.90
5675;DHT22;2860;54.284;10.158;2023-04-26T05:17:52;3.70;99.90
5675;DHT22;2860;54.284;10.158;2023-04-26T05:20:20;4.40;99.90
5675;DHT22;2860;54.284;10.158;2023-04-26T05:22:46;5.00;99.90
5675;DHT22;2860;54.284;10.158;2023-04-26T05:25:11;5.50;99.90
5675;DHT22;2860;54.284;10.158;2023-04-26T05:27:38;6.10;99.90
5675;DHT22;2860;54.284;10.158;2023-04-26T05:30:05;6.60;99.90
5675;DHT22;2860;54.284;10.158;2023-04-26T05:32:30;7.10;99.90
5675;DHT22;2860;54.284;10.158;2023-04-26T05:34:57;7.40;99.90
5675;DHT22;2860;54.284;10.158;2023-04-26T05:37:22;7.50;99.90
5675;DHT22;2860;54.284;10.158;2023-04-26T05:39:48;7.60;99.90
5675;DHT22;2860;54.284;10.158;2023-04-26T05:42:14;7.60;99.90
5675;DHT22;2860;54.284;10.158;2023-04-26T05:44:39;7.80;99.90
5675;DHT22;2860;54.284;10.158;2023-04-26T05:47:05;7.90;99.90
5675;DHT22;2860;54.284;10.158;2023-04-26T05:49:30;7.90;99.90
5675;DHT22;2860;54.284;10.158;2023-04-26T05:51:58;7.70;99.90
5675;DHT22;2860;54.284;10.158;2023-04-26T05:54:25;7.70;99.90
5675;DHT22;2860;54.284;10.158;2023-04-26T05:56:50;7.80;99.90
5675;DHT22;2860;54.284;10.158;2023-04-26T05:59:16;7.90;99.90
5675;DHT22;2860;54.284;10.158;2023-04-26T06:01:42;8.10;99.90
5675;DHT22;2860;54.284;10.158;2023-04-26T06:04:07;8.10;99.90
5675;DHT22;2860;54.284;10.158;2023-04-26T06:06:33;7.90;99.90
5675;DHT22;2860;54.284;10.158;2023-04-26T06:08:58;7.80;99.90
5675;DHT22;2860;54.284;10.158;2023-04-26T06:11:24;7.70;99.90
5675;DHT22;2860;54.284;10.158;2023-04-26T06:13:51;7.60;99.90
5675;DHT22;2860;54.284;10.158;2023-04-26T06:16:16;7.60;99.90
5675;DHT22;2860;54.284;10.158;2023-04-26T06:18:42;7.60;99.90
5675;DHT22;2860;54.284;10.158;2023-04-26T06:21:07;7.40;99.90
5675;DHT22;2860;54.284;10.158;2023-04-26T06:23:33;7.30;99.90
5675;DHT22;2860;54.284;10.158;2023-04-26T06:25:58;7.00;99.90
5675;DHT22;2860;54.284;10.158;2023-04-26T06:28:24;6.90;99.90
5675;DHT22;2860;54.284;10.158;2023-04-26T06:30:49;6.70;99.90
5675;DHT22;2860;54.284;10.158;2023-04-26T06:33:15;6.50;99.90
5675;DHT22;2860;54.284;10.158;2023-04-26T06:35:41;6.50;99.90
5675;DHT22;2860;54.284;10.158;2023-04-26T06:38:06;6.50;99.90
5675;DHT22;2860;54.284;10.158;2023-04-26T06:40:32;6.60;99.90
5675;DHT22;2860;54.284;10.158;2023-04-26T06:42:58;6.70;99.90
5675;DHT22;2860;54.284;10.158;2023-04-26T06:45:23;6.80;99.90
5675;DHT22;2860;54.284;10.158;2023-04-26T06:47:52;6.90;99.90
5675;DHT22;2860;54.284;10.158;2023-04-26T06:50:18;6.80;99.90
5675;DHT22;2860;54.284;10.158;2023-04-26T06:52:43;6.80;99.90
5675;DHT22;2860;54.284;10.158;2023-04-26T06:55:09;6.90;99.90
5675;DHT22;2860;54.284;10.158;2023-04-26T06:57:35;6.90;99.90
5675;DHT22;2860;54.284;10.158;2023-04-26T07:00:01;7.00;99.90
5675;DHT22;2860;54.284;10.158;2023-04-26T07:02:28;7.00;99.90
5675;DHT22;2860;54.284;10.158;2023-04-26T07:04:53;7.10;99.90
5675;DHT22;2860;54.284;10.158;2023-04-26T07:07:19;7.10;99.90
5675;DHT22;2860;54.284;10.158;2023-04-26T07:09:44;7.30;99.90
5675;DHT22;2860;54.284;10.158;2023-04-26T07:12:11;7.40;99.90
5675;DHT22;2860;54.284;10.158;2023-04-26T07:14:36;7.40;99.90
5675;DHT22;2860;54.284;10.158;2023-04-26T07:17:05;7.50;99.90
5675;DHT22;2860;54.284;10.158;2023-04-26T07:19:31;7.60;99.90
5675;DHT22;2860;54.284;10.158;2023-04-26T07:21:56;7.70;99.90
5675;DHT22;2860;54.284;10.158;2023-04-26T07:24:22;7.80;99.90
5675;DHT22;2860;54.284;10.158;2023-04-26T07:26:47;7.70;99.90
5675;DHT22;2860;54.284;10.158;2023-04-26T07:29:12;7.70;99.90
5675;DHT22;2860;54.284;10.158;2023-04-26T07:31:38;7.80;99.90
5675;DHT22;2860;54.284;10.158;2023-04-26T07:34:04;7.80;99.90
5675;DHT22;2860;54.284;10.158;2023-04-26T07:36:29;8.00;99.90
5675;DHT22;2860;54.284;10.158;2023-04-26T07:38:55;8.20;99.90
5675;DHT22;2860;54.284;10.158;2023-04-26T07:41:21;8.40;99.90
5675;DHT22;2860;54.284;10.158;2023-04-26T07:43:47;8.40;99.90
5675;DHT22;2860;54.284;10.158;2023-04-26T07:49:10;8.20;99.90
5675;DHT22;2860;54.284;10.158;2023-04-26T07:51:36;8.20;99.90
5675;DHT22;2860;54.284;10.158;2023-04-26T07:54:01;8.20;99.90
5675;DHT22;2860;54.284;10.158;2023-04-26T07:56:27;8.50;99.90
5675;DHT22;2860;54.284;10.158;2023-04-26T07:58:52;8.60;99.90
5675;DHT22;2860;54.284;10.158;2023-04-26T08:01:18;8.50;99.90
5675;DHT22;2860;54.284;10.158;2023-04-26T08:03:44;8.40;99.90
5675;DHT22;2860;54.284;10.158;2023-04-26T08:06:09;8.10;99.90
5675;DHT22;2860;54.284;10.158;2023-04-26T08:08:36;7.90;99.90
5675;DHT22;2860;54.284;10.158;2023-04-26T08:11:09;7.70;99.90
5675;DHT22;2860;54.284;10.158;2023-04-26T08:13:35;8.00;99.90
5675;DHT22;2860;54.284;10.158;2023-04-26T08:16:01;8.10;99.90
5675;DHT22;2860;54.284;10.158;2023-04-26T08:18:26;8.40;99.90
5675;DHT22;2860;54.284;10.158;2023-04-26T08:20:51;8.70;99.90
5675;DHT22;2860;54.284;10.158;2023-04-26T08:23:20;8.80;99.90
5675;DHT22;2860;54.284;10.158;2023-04-26T08:25:45;8.80;99.90
5675;DHT22;2860;54.284;10.158;2023-04-26T08:28:11;8.50;99.90
5675;DHT22;2860;54.284;10.158;2023-04-26T08:30:39;8.40;99.90
5675;DHT22;2860;54.284;10.158;2023-04-26T08:33:04;8.20;99.90
5675;DHT22;2860;54.284;10.158;2023-04-26T08:35:31;8.00;99.90
5675;DHT22;2860;54.284;10.158;2023-04-26T08:37:56;7.80;99.90
5675;DHT22;2860;54.284;10.158;2023-04-26T08:40:23;8.00;99.90
5675;DHT22;2860;54.284;10.158;2023-04-26T08:42:49;8.10;99.90
5675;DHT22;2860;54.284;10.158;2023-04-26T08:45:17;8.40;99.90
5675;DHT22;2860;54.284;10.158;2023-04-26T08:47:43;8.80;99.90
5675;DHT22;2860;54.284;10.158;2023-04-26T08:50:11;9.10;99.90
5675;DHT22;2860;54.284;10.158;2023-04-26T08:52:39;9.30;99.90
5675;DHT22;2860;54.284;10.158;2023-04-26T08:55:07;9.30;99.90
5675;DHT22;2860;54.284;10.158;2023-04-26T08:57:34;9.30;99.90
5675;DHT22;2860;54.284;10.158;2023-04-26T09:00:02;9.10;99.90
5675;DHT22;2860;54.284;10.158;2023-04-26T09:02:30;8.90;99.90
5675;DHT22;2860;54.284;10.158;2023-04-26T09:04:56;8.70;99.90
5675;DHT22;2860;54.284;10.158;2023-04-26T09:07:33;8.80;99.90
5675;DHT22;2860;54.284;10.158;2023-04-26T09:09:59;8.90;99.90
5675;DHT22;2860;54.284;10.158;2023-04-26T09:12:25;9.00;99.90
5675;DHT22;2860;54.284;10.158;2023-04-26T09:14:51;9.10;99.90
5675;DHT22;2860;54.284;10.158;2023-04-26T09:17:27;9.20;99.90
5675;DHT22;2860;54.284;10.158;2023-04-26T09:19:52;9.20;99.90
5675;DHT22;2860;54.284;10.158;2023-04-26T09:22:33;9.20;99.90
5675;DHT22;2860;54.284;10.158;2023-04-26T09:24:59;9.20;99.90
5675;DHT22;2860;54.284;10.158;2023-04-26T09:27:32;9.40;99.90
5675;DHT22;2860;54.284;10.158;2023-04-26T09:30:08;9.50;99.90
5675;DHT22;2860;54.284;10.158;2023-04-26T09:35:20;9.70;99.90
5675;DHT22;2860;54.284;10.158;2023-04-26T09:38:06;9.80;99.90
5675;DHT22;2860;54.284;10.158;2023-04-26T09:40:34;10.10;99.90
5675;DHT22;2860;54.284;10.158;2023-04-26T09:43:05;10.00;99.90
5675;DHT22;2860;54.284;10.158;2023-04-26T09:45:32;9.90;99.90
5675;DHT22;2860;54.284;10.158;2023-04-26T09:48:13;10.00;99.90
5675;DHT22;2860;54.284;10.158;2023-04-26T09:50:41;10.30;99.90
5675;DHT22;2860;54.284;10.158;2023-04-26T09:53:07;10.60;99.90
5675;DHT22;2860;54.284;10.158;2023-04-26T09:55:33;11.10;99.90
5675;DHT22;2860;54.284;10.158;2023-04-26T09:57:59;11.10;99.90
5675;DHT22;2860;54.284;10.158;2023-04-26T10:00:31;10.80;99.90
5675;DHT22;2860;54.284;10.158;2023-04-26T10:02:57;10.30;99.90
5675;DHT22;2860;54.284;10.158;2023-04-26T10:05:23;9.90;99.90
5675;DHT22;2860;54.284;10.158;2023-04-26T10:07:49;9.60;99.90
5675;DHT22;2860;54.284;10.158;2023-04-26T10:10:16;9.50;99.90
5675;DHT22;2860;54.284;10.158;2023-04-26T10:12:42;9.30;99.90
5675;DHT22;2860;54.284;10.158;2023-04-26T10:15:09;9.20;99.90
5675;DHT22;2860;54.284;10.158;2023-04-26T10:17:36;9.20;99.90
5675;DHT22;2860;54.284;10.158;2023-04-26T10:20:04;9.20;99.90
5675;DHT22;2860;54.284;10.158;2023-04-26T10:22:38;9.20;99.90
5675;DHT22;2860;54.284;10.158;2023-04-26T10:25:07;9.30;99.90
5675;DHT22;2860;54.284;10.158;2023-04-26T10:30:10;9.60;99.90
5675;DHT22;2860;54.284;10.158;2023-04-26T10:35:32;10.00;99.90
5675;DHT22;2860;54.284;10.158;2023-04-26T10:45:36;10.10;99.90
5675;DHT22;2860;54.284;10.158;2023-04-26T10:48:20;10.20;99.90
5675;DHT22;2860;54.284;10.158;2023-04-26T10:53:30;10.70;99.90
5675;DHT22;2860;54.284;10.158;2023-04-26T10:55:57;11.00;99.90
5675;DHT22;2860;54.284;10.158;2023-04-26T10:58:32;11.00;99.90
5675;DHT22;2860;54.284;10.158;2023-04-26T11:06:25;11.10;99.90
5675;DHT22;2860;54.284;10.158;2023-04-26T11:08:52;11.40;99.90
5675;DHT22;2860;54.284;10.158;2023-04-26T11:11:18;11.60;99.90
5675;DHT22;2860;54.284;10.158;2023-04-26T11:13:45;11.50;99.90
5675;DHT22;2860;54.284;10.158;2023-04-26T11:16:15;11.60;99.90
5675;DHT22;2860;54.284;10.158;2023-04-26T11:18:42;11.30;99.90
5675;DHT22;2860;54.284;10.158;2023-04-26T11:21:09;11.30;99.90
5675;DHT22;2860;54.284;10.158;2023-04-26T11:23:36;11.60;99.90
5675;DHT22;2860;54.284;10.158;2023-04-26T11:26:03;11.60;99.90
5675;DHT22;2860;54.284;10.158;2023-04-26T11:28:33;11.20;99.90
5675;DHT22;2860;54.284;10.158;2023-04-26T11:30:59;10.40;99.90
5675;DHT22;2860;54.284;10.158;2023-04-26T11:33:25;9.50;99.90
5675;DHT22;2860;54.284;10.158;2023-04-26T11:35:52;8.90;99.90
5675;DHT22;2860;54.284;10.158;2023-04-26T11:38:22;8.50;99.90
5675;DHT22;2860;54.284;10.158;2023-04-26T11:40:58;8.40;99.90
5675;DHT22;2860;54.284;10.158;2023-04-26T11:43:34;8.70;99.90
5675;DHT22;2860;54.284;10.158;2023-04-26T11:46:01;9.20;99.90
5675;DHT22;2860;54.284;10.158;2023-04-26T11:48:31;9.50;99.90
5675;DHT22;2860;54.284;10.158;2023-04-26T11:50:58;9.80;99.90
5675;DHT22;2860;54.284;10.158;2023-04-26T11:53:33;10.10;99.90
5675;DHT22;2860;54.284;10.158;2023-04-26T11:55:59;10.50;99.90
5675;DHT22;2860;54.284;10.158;2023-04-26T11:58:25;10.70;99.90
5675;DHT22;2860;54.284;10.158;2023-04-26T12:01:00;10.70;99.90
5675;DHT22;2860;54.284;10.158;2023-04-26T12:03:32;10.80;99.90
5675;DHT22;2860;54.284;10.158;2023-04-26T12:06:02;10.70;99.90
5675;DHT22;2860;54.284;10.158;2023-04-26T12:08:28;10.50;99.90
5675;DHT22;2860;54.284;10.158;2023-04-26T12:10:59;10.30;99.90
5675;DHT22;2860;54.284;10.158;2023-04-26T12:13:25;10.10;99.90
5675;DHT22;2860;54.284;10.158;2023-04-26T12:15:51;10.00;99.90
5675;DHT22;2860;54.284;10.158;2023-04-26T12:18:17;10.20;99.90
5675;DHT22;2860;54.284;10.158;2023-04-26T12:20:43;10.50;99.90
5675;DHT22;2860;54.284;10.158;2023-04-26T12:23:14;10.30;99.90
5675;DHT22;2860;54.284;10.158;2023-04-26T12:25:51;10.30;99.90
5675;DHT22;2860;54.284;10.158;2023-04-26T12:28:18;10.40;99.90
5675;DHT22;2860;54.284;10.158;2023-04-26T12:30:43;10.70;99.90
5675;DHT22;2860;54.284;10.158;2023-04-26T12:33:09;10.90;99.90
5675;DHT22;2860;54.284;10.158;2023-04-26T12:35:35;11.20;99.90
5675;DHT22;2860;54.284;10.158;2023-04-26T12:38:01;11.40;99.90
5675;DHT22;2860;54.284;10.158;2023-04-26T12:40:27;11.40;99.90
5675;DHT22;2860;54.284;10.158;2023-04-26T12:42:53;11.40;99.90
5675;DHT22;2860;54.284;10.158;2023-04-26T12:45:21;10.80;99.90
5675;DHT22;2860;54.284;10.158;2023-04-26T12:47:47;10.40;99.90
5675;DHT22;2860;54.284;10.158;2023-04-26T12:50:14;10.20;99.90
5675;DHT22;2860;54.284;10.158;2023-04-26T12:52:41;9.70;99.90
5675;DHT22;2860;54.284;10.158;2023-04-26T12:55:08;9.20;99.90
5675;DHT22;2860;54.284;10.158;2023-04-26T12:57:35;8.90;99.90
5675;DHT22;2860;54.284;10.158;2023-04-26T13:00:02;8.80;99.90
5675;DHT22;2860;54.284;10.158;2023-04-26T13:02:28;8.80;99.90
5675;DHT22;2860;54.284;10.158;2023-04-26T13:04:54;8.90;99.90
5675;DHT22;2860;54.284;10.158;2023-04-26T13:07:20;9.00;99.90
5675;DHT22;2860;54.284;10.158;2023-04-26T13:09:46;9.20;99.90
5675;DHT22;2860;54.284;10.158;2023-04-26T13:12:11;9.40;99.90
5675;DHT22;2860;54.284;10.158;2023-04-26T13:14:38;9.70;99.90
5675;DHT22;2860;54.284;10.158;2023-04-26T13:17:04;10.10;99.90
5675;DHT22;2860;54.284;10.158;2023-04-26T13:19:30;10.30;99.90
5675;DHT22;2860;54.284;10.158;2023-04-26T13:21:55;10.40;99.90
5675;DHT22;2860;54.284;10.158;2023-04-26T13:24:21;10.50;99.90
5675;DHT22;2860;54.284;10.158;2023-04-26T13:26:46;10.70;99.90
5675;DHT22;2860;54.284;10.158;2023-04-26T13:29:12;10.90;99.90
5675;DHT22;2860;54.284;10.158;2023-04-26T13:31:37;11.10;99.90
5675;DHT22;2860;54.284;10.158;2023-04-26T13:34:04;11.30;99.90
5675;DHT22;2860;54.284;10.158;2023-04-26T13:36:30;11.60;99.90
5675;DHT22;2860;54.284;10.158;2023-04-26T13:38:56;11.60;99.90
5675;DHT22;2860;54.284;10.158;2023-04-26T13:41:22;11.30;99.90
5675;DHT22;2860;54.284;10.158;2023-04-26T13:43:48;10.90;99.90
5675;DHT22;2860;54.284;10.158;2023-04-26T13:46:14;10.40;99.90
5675;DHT22;2860;54.284;10.158;2023-04-26T13:48:39;10.10;99.90
5675;DHT22;2860;54.284;10.158;2023-04-26T13:51:05;9.80;99.90
5675;DHT22;2860;54.284;10.158;2023-04-26T13:53:31;9.50;99.90
5675;DHT22;2860;54.284;10.158;2023-04-26T13:55:57;9.40;99.90
5675;DHT22;2860;54.284;10.158;2023-04-26T13:58:22;9.30;99.90
5675;DHT22;2860;54.284;10.158;2023-04-26T14:00:48;9.30;99.90
5675;DHT22;2860;54.284;10.158;2023-04-26T14:03:13;9.30;99.90
5675;DHT22;2860;54.284;10.158;2023-04-26T14:05:39;9.50;99.90
5675;DHT22;2860;54.284;10.158;2023-04-26T14:08:05;9.40;99.90
5675;DHT22;2860;54.284;10.158;2023-04-26T14:10:31;9.40;99.90
5675;DHT22;2860;54.284;10.158;2023-04-26T14:12:56;9.40;99.90
5675;DHT22;2860;54.284;10.158;2023-04-26T14:15:22;9.40;99.90
5675;DHT22;2860;54.284;10.158;2023-04-26T14:17:49;9.30;99.90
5675;DHT22;2860;54.284;10.158;2023-04-26T14:20:14;9.10;99.90
5675;DHT22;2860;54.284;10.158;2023-04-26T14:22:40;9.30;99.90
5675;DHT22;2860;54.284;10.158;2023-04-26T14:25:06;9.60;99.90
5675;DHT22;2860;54.284;10.158;2023-04-26T14:27:31;9.70;99.90
5675;DHT22;2860;54.284;10.158;2023-04-26T14:29:57;9.80;99.90
5675;DHT22;2860;54.284;10.158;2023-04-26T14:32:23;10.00;99.90
5675;DHT22;2860;54.284;10.158;2023-04-26T14:34:48;10.40;99.90
5675;DHT22;2860;54.284;10.158;2023-04-26T14:37:13;10.80;99.90
5675;DHT22;2860;54.284;10.158;2023-04-26T14:39:39;11.20;99.90
5675;DHT22;2860;54.284;10.158;2023-04-26T14:42:05;11.60;99.90
5675;DHT22;2860;54.284;10.158;2023-04-26T14:44:31;11.80;99.90
5675;DHT22;2860;54.284;10.158;2023-04-26T14:46:56;12.00;99.90
5675;DHT22;2860;54.284;10.158;2023-04-26T14:49:22;11.70;99.90
5675;DHT22;2860;54.284;10.158;2023-04-26T14:51:47;11.40;99.90
5675;DHT22;2860;54.284;10.158;2023-04-26T14:54:13;11.00;99.90
5675;DHT22;2860;54.284;10.158;2023-04-26T14:56:39;10.60;99.90
5675;DHT22;2860;54.284;10.158;2023-04-26T14:59:05;10.40;99.90
5675;DHT22;2860;54.284;10.158;2023-04-26T15:01:30;10.10;99.90
5675;DHT22;2860;54.284;10.158;2023-04-26T15:03:56;9.80;99.90
5675;DHT22;2860;54.284;10.158;2023-04-26T15:06:21;9.50;99.90
5675;DHT22;2860;54.284;10.158;2023-04-26T15:08:48;9.40;99.90
5675;DHT22;2860;54.284;10.158;2023-04-26T15:11:13;9.30;99.90
5675;DHT22;2860;54.284;10.158;2023-04-26T15:13:42;9.10;99.90
5675;DHT22;2860;54.284;10.158;2023-04-26T15:16:07;8.90;99.90
5675;DHT22;2860;54.284;10.158;2023-04-26T15:18:34;8.90;99.90
5675;DHT22;2860;54.284;10.158;2023-04-26T15:21:02;9.20;99.90
5675;DHT22;2860;54.284;10.158;2023-04-26T15:23:27;9.40;99.90
5675;DHT22;2860;54.284;10.158;2023-04-26T15:25:53;9.50;99.90
5675;DHT22;2860;54.284;10.158;2023-04-26T15:28:18;9.70;99.90
5675;DHT22;2860;54.284;10.158;2023-04-26T15:30:44;10.10;99.90
5675;DHT22;2860;54.284;10.158;2023-04-26T15:33:10;10.30;99.90
5675;DHT22;2860;54.284;10.158;2023-04-26T15:35:37;10.50;99.90
5675;DHT22;2860;54.284;10.158;2023-04-26T15:38:03;10.50;99.90
5675;DHT22;2860;54.284;10.158;2023-04-26T15:40:29;10.30;99.90
5675;DHT22;2860;54.284;10.158;2023-04-26T15:42:54;10.10;99.90
5675;DHT22;2860;54.284;10.158;2023-04-26T15:45:20;9.80;99.90
5675;DHT22;2860;54.284;10.158;2023-04-26T15:47:45;9.80;99.90
5675;DHT22;2860;54.284;10.158;2023-04-26T15:50:11;9.80;99.90
5675;DHT22;2860;54.284;10.158;2023-04-26T15:52:37;9.70;99.90
5675;DHT22;2860;54.284;10.158;2023-04-26T15:55:04;9.80;99.90
5675;DHT22;2860;54.284;10.158;2023-04-26T15:57:31;9.80;99.90
5675;DHT22;2860;54.284;10.158;2023-04-26T15:59:57;9.80;99.90
5675;DHT22;2860;54.284;10.158;2023-04-26T16:02:22;9.70;99.90
5675;DHT22;2860;54.284;10.158;2023-04-26T16:04:48;9.70;99.90
5675;DHT22;2860;54.284;10.158;2023-04-26T16:07:13;9.70;99.90
5675;DHT22;2860;54.284;10.158;2023-04-26T16:09:39;9.80;99.90
5675;DHT22;2860;54.284;10.158;2023-04-26T16:12:05;9.70;99.90
5675;DHT22;2860;54.284;10.158;2023-04-26T16:14:33;9.60;99.90
5675;DHT22;2860;54.284;10.158;2023-04-26T16:16:59;9.40;99.90
5675;DHT22;2860;54.284;10.158;2023-04-26T16:19:25;9.30;99.90